Time;durP1;ratioP1;P1;durP2;ratioP2;P2;SDS_P1;SDS_P2;PMS_P1;PMS_P2;Temp;Humidity;BMP_temperature;BMP_pressure;BME280_temperature;BME280_humidity;BME280_pressure;Samples;Min_cycle;Max_cycle;Signal;HPM_P1;HPM_P2
2022/01/07 00:00:17;;;;;;;0.20;0.10;;;6.10;99.90;;;;;;20261272;29;20659;-71
2022/01/07 00:10:23;;;;;;;0.20;0.10;;;6.30;99.90;;;;;;20262328;29;20286;-70
2022/01/07 00:20:27;;;;;;;0.20;0.10;;;6.40;99.90;;;;;;20261495;29;20226;-71
2022/01/07 00:30:33;;;;;;;0.20;0.10;;;6.40;99.90;;;;;;20336377;29;20657;-72
2022/01/07 00:40:38;;;;;;;0.30;0.23;;;6.30;99.90;;;;;;20320854;29;20244;-73
2022/01/07 00:50:43;;;;;;;0.20;0.10;;;6.10;99.90;;;;;;20337042;29;20232;-72
2022/01/07 01:00:47;;;;;;;0.20;0.20;;;6.10;99.90;;;;;;20339205;29;20599;-71
2022/01/07 01:10:52;;;;;;;0.20;0.00;;;5.90;99.90;;;;;;20352534;29;20202;-71
2022/01/07 01:20:56;;;;;;;0.83;0.83;;;5.90;99.90;;;;;;20352159;29;20233;-72
2022/01/07 01:31:01;;;;;;;0.20;0.10;;;5.90;99.90;;;;;;20351747;29;20202;-72
2022/01/07 01:41:06;;;;;;;0.20;0.10;;;5.80;99.90;;;;;;20334204;29;20236;-72
2022/01/07 01:51:12;;;;;;;0.20;0.10;;;5.70;99.90;;;;;;20332739;29;20767;-71
2022/01/07 02:01:16;;;;;;;0.20;0.00;;;5.80;99.90;;;;;;20348570;29;20571;-72
2022/01/07 02:11:23;;;;;;;0.20;0.00;;;5.70;99.90;;;;;;20347796;29;20660;-72
2022/01/07 02:21:28;;;;;;;0.40;0.40;;;5.80;99.90;;;;;;20324827;29;20267;-72
2022/01/07 02:31:32;;;;;;;0.20;0.10;;;6.00;99.90;;;;;;20251007;29;20247;-72
2022/01/07 02:41:37;;;;;;;0.20;0.03;;;6.00;99.90;;;;;;20267928;29;20230;-71
2022/01/07 02:51:42;;;;;;;0.20;0.10;;;5.90;99.90;;;;;;20250434;29;20622;-71
2022/01/07 03:01:47;;;;;;;0.20;0.10;;;6.00;99.90;;;;;;20265776;29;20334;-73
2022/01/07 03:11:52;;;;;;;0.20;0.10;;;6.00;99.90;;;;;;20265372;29;20195;-71
2022/01/07 03:21:57;;;;;;;0.20;0.10;;;6.00;99.90;;;;;;20273698;29;20498;-71
2022/01/07 03:32:01;;;;;;;0.20;0.00;;;6.00;99.90;;;;;;20342016;29;20258;-67
2022/01/07 03:42:08;;;;;;;0.20;0.10;;;5.70;99.90;;;;;;20340561;29;20230;-65
2022/01/07 03:52:11;;;;;;;0.20;0.10;;;5.50;99.90;;;;;;20323779;29;20197;-78
2022/01/07 04:02:17;;;;;;;0.20;0.10;;;5.30;99.90;;;;;;20339427;29;20234;-77
2022/01/07 04:12:20;;;;;;;0.20;0.10;;;5.20;99.90;;;;;;20339075;29;20206;-75
2022/01/07 04:22:25;;;;;;;0.20;0.10;;;5.10;99.90;;;;;;20325549;29;20226;-74
2022/01/07 04:32:29;;;;;;;0.20;0.10;;;5.20;99.90;;;;;;20259402;29;20596;-76
2022/01/07 04:42:34;;;;;;;0.20;0.10;;;5.10;99.90;;;;;;20268038;29;20237;-64
2022/01/07 04:52:41;;;;;;;0.20;0.10;;;5.10;99.90;;;;;;20286587;29;20226;-66
2022/01/07 05:02:46;;;;;;;0.20;0.10;;;5.10;99.90;;;;;;20336017;29;20237;-66
2022/01/07 05:12:50;;;;;;;0.20;0.00;;;5.20;99.90;;;;;;20336103;29;20604;-66
2022/01/07 05:22:55;;;;;;;0.20;0.10;;;5.20;99.90;;;;;;20318807;29;20231;-66
2022/01/07 05:32:59;;;;;;;0.20;0.10;;;5.30;99.90;;;;;;20257097;29;20203;-65
2022/01/07 05:43:04;;;;;;;0.20;0.10;;;5.20;99.90;;;;;;20256598;29;20576;-65
2022/01/07 05:53:07;;;;;;;0.20;0.10;;;5.20;99.90;;;;;;20267444;29;20245;-65
2022/01/07 06:03:13;;;;;;;0.20;0.10;;;5.20;99.90;;;;;;20270186;29;20645;-66
2022/01/07 06:13:17;;;;;;;0.20;0.10;;;5.10;99.90;;;;;;20269110;29;20289;-67
2022/01/07 06:23:22;;;;;;;0.20;0.10;;;5.00;99.90;;;;;;20271847;29;20226;-66
2022/01/07 06:33:26;;;;;;;0.20;0.10;;;4.80;99.90;;;;;;20345450;29;20198;-72
2022/01/07 06:43:31;;;;;;;0.20;0.10;;;4.70;99.90;;;;;;20344475;29;20237;-73
2022/01/07 06:53:35;;;;;;;0.20;0.10;;;4.80;99.90;;;;;;20343741;29;20326;-67
2022/01/07 07:03:40;;;;;;;0.20;0.10;;;4.80;99.90;;;;;;20342253;29;20293;-67
2022/01/07 07:13:45;;;;;;;0.20;0.10;;;4.70;99.90;;;;;;20341437;29;20195;-67
2022/01/07 07:23:50;;;;;;;0.20;0.10;;;4.80;99.90;;;;;;20316534;29;20222;-67
2022/01/07 07:34:18;;;;;;;0.20;0.10;;;4.50;99.90;;;;;;20247172;29;20214;-67
2022/01/07 07:44:23;;;;;;;0.20;0.10;;;4.50;99.90;;;;;;20261564;29;20242;-66
2022/01/07 07:54:26;;;;;;;0.20;0.10;;;4.70;99.90;;;;;;20261513;29;20250;-67
2022/01/07 08:04:32;;;;;;;0.20;0.10;;;4.70;99.90;;;;;;20260592;29;20227;-72
2022/01/07 08:24:58;;;;;;;12.57;6.53;;;5.40;99.90;;;;;;20292085;29;20214;-72
2022/01/07 08:35:04;;;;;;;0.20;0.10;;;5.70;99.90;;;;;;20320099;29;20226;-71
2022/01/07 08:45:09;;;;;;;0.20;0.00;;;6.10;99.90;;;;;;20336091;29;20241;-72
2022/01/07 08:55:13;;;;;;;0.20;0.10;;;6.00;99.90;;;;;;20337327;29;20234;-69
2022/01/07 09:05:18;;;;;;;0.20;0.10;;;6.30;99.90;;;;;;20336796;29;20226;-71
2022/01/07 09:15:23;;;;;;;0.20;0.00;;;6.60;99.90;;;;;;20336610;29;20202;-78
2022/01/07 09:25:28;;;;;;;0.20;0.00;;;6.80;99.90;;;;;;20306397;29;20215;-72
2022/01/07 09:35:32;;;;;;;0.20;0.00;;;7.30;99.90;;;;;;20270171;29;20252;-73
2022/01/07 09:45:38;;;;;;;0.20;0.10;;;7.60;99.90;;;;;;20270860;29;20231;-76
2022/01/07 09:55:43;;;;;;;0.20;0.10;;;8.10;99.90;;;;;;20294854;29;20265;-73
2022/01/07 10:05:50;;;;;;;0.20;0.10;;;8.70;99.90;;;;;;20316072;29;20698;-73
2022/01/07 10:15:53;;;;;;;0.20;0.10;;;9.20;99.90;;;;;;20252143;29;20198;-73
2022/01/07 10:26:21;;;;;;;0.20;0.03;;;9.60;99.90;;;;;;20280823;29;20320;-73
2022/01/07 10:36:25;;;;;;;0.20;0.10;;;10.40;99.90;;;;;;20313245;29;20202;-63
2022/01/07 10:46:31;;;;;;;0.20;0.10;;;11.50;99.90;;;;;;20331051;29;20722;-64
2022/01/07 10:56:37;;;;;;;0.20;0.10;;;12.20;99.90;;;;;;20330694;29;20237;-69
2022/01/07 11:06:44;;;;;;;0.20;0.10;;;12.50;99.90;;;;;;20312370;29;20241;-70
2022/01/07 11:16:48;;;;;;;0.20;0.10;;;12.70;99.90;;;;;;20312315;29;20206;-69
2022/01/07 11:27:05;;;;;;;0.20;0.10;;;13.50;99.90;;;;;;20329111;29;20233;-64
2022/01/07 11:37:33;;;;;;;1.27;1.27;;;13.70;99.90;;;;;;20328269;29;20209;-65
2022/01/07 11:47:49;;;;;;;0.20;0.10;;;14.00;99.90;;;;;;20326028;29;20774;-71
2022/01/07 11:57:55;;;;;;;0.20;0.10;;;14.40;99.90;;;;;;20324722;29;20245;-70
2022/01/07 12:08:01;;;;;;;0.20;0.10;;;14.60;99.90;;;;;;20324671;29;20229;-70
2022/01/07 12:18:09;;;;;;;0.20;0.10;;;15.40;99.90;;;;;;20324337;29;20202;-70
2022/01/07 12:28:15;;;;;;;0.20;0.10;;;15.70;99.90;;;;;;20324544;29;20229;-67
2022/01/07 12:38:22;;;;;;;0.20;0.10;;;15.90;99.90;;;;;;20323140;29;20228;-67
2022/01/07 12:48:41;;;;;;;0.20;0.10;;;16.20;99.90;;;;;;20322248;29;20300;-67
2022/01/07 12:58:45;;;;;;;0.20;0.10;;;17.30;99.90;;;;;;20320843;29;20230;-68
2022/01/07 13:08:50;;;;;;;0.20;0.10;;;17.20;99.90;;;;;;20246353;29;20225;-69
2022/01/07 13:18:54;;;;;;;0.20;0.10;;;17.10;99.90;;;;;;20225675;29;20828;-68
2022/01/07 13:29:15;;;;;;;0.20;0.10;;;17.50;99.90;;;;;;20307123;29;20226;-68
2022/01/07 13:39:21;;;;;;;0.20;0.10;;;17.50;99.90;;;;;;20320312;29;20620;-67
2022/01/07 13:49:27;;;;;;;0.20;0.20;;;16.80;99.90;;;;;;20319491;29;20273;-67
2022/01/07 13:59:42;;;;;;;0.20;0.10;;;16.60;99.90;;;;;;20320982;29;20234;-67
2022/01/07 14:52:00;;;;;;;0.20;0.20;;;17.70;99.90;;;;;;25721074;22;1904128;-67
2022/01/07 15:02:06;;;;;;;0.20;0.10;;;16.70;99.90;;;;;;25599127;23;20194;-67
2022/01/07 15:12:12;;;;;;;0.20;0.10;;;15.70;99.90;;;;;;25598289;23;20516;-69
2022/01/07 15:22:15;;;;;;;0.20;0.10;;;15.70;99.90;;;;;;25596824;23;20177;-68
2022/01/07 15:32:20;;;;;;;0.20;0.10;;;16.40;99.90;;;;;;25543094;23;20724;-69
2022/01/07 15:42:24;;;;;;;0.20;0.10;;;17.20;99.90;;;;;;25568932;23;20184;-67
2022/01/07 15:52:29;;;;;;;0.20;0.10;;;15.90;99.90;;;;;;25567892;23;20288;-69
2022/01/07 16:02:33;;;;;;;0.20;0.10;;;15.20;99.90;;;;;;25570483;23;20163;-69
2022/01/07 16:12:38;;;;;;;0.20;0.10;;;13.80;99.90;;;;;;25568102;23;20465;-70
2022/01/07 16:22:42;;;;;;;0.20;0.10;;;11.50;99.90;;;;;;25565708;23;20492;-69
2022/01/07 16:32:47;;;;;;;0.20;0.10;;;10.80;99.90;;;;;;25562761;23;20196;-69
2022/01/07 16:42:51;;;;;;;0.20;0.10;;;9.90;99.90;;;;;;25564708;23;20174;-65
2022/01/07 16:52:59;;;;;;;0.20;0.10;;;9.10;99.90;;;;;;25535159;23;20221;-63
2022/01/07 17:03:03;;;;;;;0.20;0.10;;;9.00;99.90;;;;;;25564167;23;20181;-69
2022/01/07 17:13:09;;;;;;;0.20;0.10;;;8.40;99.90;;;;;;25563990;23;20217;-69
2022/01/07 17:23:13;;;;;;;0.20;0.10;;;8.00;99.90;;;;;;25562745;23;20559;-69
2022/01/07 17:33:18;;;;;;;0.20;0.10;;;8.00;99.90;;;;;;25563095;23;20206;-69
2022/01/07 17:43:22;;;;;;;0.20;0.00;;;7.60;99.90;;;;;;25532742;23;20640;-65
2022/01/07 17:53:27;;;;;;;0.20;0.20;;;7.50;99.90;;;;;;25560632;23;20562;-68
2022/01/07 18:03:31;;;;;;;0.23;0.17;;;7.20;99.90;;;;;;25575638;23;20181;-71
2022/01/07 18:13:36;;;;;;;0.73;0.73;;;7.20;99.90;;;;;;25577236;23;20194;-72
2022/01/07 18:23:42;;;;;;;0.20;0.07;;;7.30;99.90;;;;;;25577671;23;20505;-69
2022/01/07 18:33:48;;;;;;;0.20;0.10;;;6.80;99.90;;;;;;25576622;23;20201;-72
2022/01/07 18:43:51;;;;;;;0.20;0.10;;;6.70;99.90;;;;;;25576954;23;20209;-73
2022/01/07 18:53:57;;;;;;;0.20;0.10;;;6.60;99.90;;;;;;25574609;23;20668;-73
2022/01/07 19:04:01;;;;;;;0.83;0.83;;;6.50;99.90;;;;;;25554475;23;20218;-74
2022/01/07 19:14:06;;;;;;;0.20;0.10;;;6.50;99.90;;;;;;25582422;23;20198;-73
2022/01/07 19:24:10;;;;;;;0.20;0.10;;;6.40;99.90;;;;;;25582704;23;20169;-71
2022/01/07 19:34:15;;;;;;;0.57;0.57;;;6.10;99.90;;;;;;25581263;23;20269;-72
2022/01/07 19:44:19;;;;;;;0.20;0.00;;;6.20;99.90;;;;;;25581431;23;20170;-72
2022/01/07 19:54:24;;;;;;;0.20;0.10;;;6.30;99.90;;;;;;25580684;23;20216;-73
2022/01/07 20:04:37;;;;;;;0.20;0.00;;;5.90;99.90;;;;;;25581063;23;20221;-71
2022/01/07 20:14:43;;;;;;;0.20;0.10;;;6.10;99.90;;;;;;25582292;23;20652;-72
2022/01/07 20:24:47;;;;;;;0.20;0.10;;;6.40;99.90;;;;;;25579437;23;20554;-66
2022/01/07 20:34:56;;;;;;;0.20;0.00;;;6.00;99.90;;;;;;25579548;23;20241;-65
2022/01/07 20:45:00;;;;;;;0.20;0.13;;;5.50;99.90;;;;;;25553165;23;20285;-73
2022/01/07 20:55:06;;;;;;;0.20;0.00;;;5.30;99.90;;;;;;25552714;23;20296;-75
2022/01/07 21:05:14;;;;;;;0.20;0.10;;;5.50;99.90;;;;;;25580002;23;20253;-77
2022/01/07 21:15:19;;;;;;;0.20;0.20;;;5.60;99.90;;;;;;25553504;23;20198;-78
2022/01/07 21:25:23;;;;;;;0.20;0.10;;;5.00;99.90;;;;;;25555454;23;20656;-72
2022/01/07 21:35:29;;;;;;;0.20;0.10;;;5.30;99.90;;;;;;25560219;23;20197;-74
2022/01/07 21:45:32;;;;;;;0.20;0.00;;;5.40;99.90;;;;;;25557948;23;20201;-76
2022/01/07 21:55:38;;;;;;;0.20;0.10;;;4.80;99.90;;;;;;25584255;23;20778;-70
2022/01/07 22:05:42;;;;;;;0.20;0.10;;;4.80;99.90;;;;;;25584629;23;20201;-70
2022/01/07 22:15:51;;;;;;;0.20;0.10;;;4.50;99.90;;;;;;25585779;23;20618;-69
2022/01/07 22:25:55;;;;;;;0.20;0.20;;;4.50;99.90;;;;;;25585747;23;20166;-70
2022/01/07 22:36:00;;;;;;;0.20;0.10;;;4.60;99.90;;;;;;25588582;23;20652;-67
2022/01/07 22:46:04;;;;;;;0.20;0.10;;;4.50;99.90;;;;;;25593887;23;20544;-67
2022/01/07 22:56:10;;;;;;;0.30;0.30;;;4.30;99.90;;;;;;25565824;23;20248;-66
2022/01/07 23:06:14;;;;;;;0.20;0.20;;;3.90;99.90;;;;;;25592294;23;20202;-74
2022/01/07 23:16:25;;;;;;;0.20;0.00;;;4.40;99.90;;;;;;25564645;23;20666;-74
2022/01/07 23:26:29;;;;;;;0.20;0.10;;;4.80;99.90;;;;;;25566695;23;20539;-74
2022/01/07 23:36:36;;;;;;;0.20;0.10;;;4.60;99.90;;;;;;25564400;23;20229;-75
2022/01/07 23:46:39;;;;;;;0.20;0.10;;;4.80;99.90;;;;;;25564610;23;20245;-74
2022/01/07 23:56:44;;;;;;;0.20;0.10;;;4.50;99.90;;;;;;25562547;23;20202;-74
